Terminal Aerodrome Forecast
Issued by NWS Portland, OR

Home | Current Version | Previous Version | Text Only | Print | Product List | Glossary On
Versions: 1 2 3 4 5 6 7 8 9 10 11 12 13 14 15 16 17 18 19 20 21 22 23 24 25 26 27 28
000
FTUS46 KPQR 181124
TAFPDX
TAF
KPDX 181124Z 1812/1912 00000KT P6SM SCT060
     FM181300 VRB02KT 5SM BR SCT007
     FM181600 02003KT P6SM SCT200
     FM182200 34005KT P6SM SCT150
     FM190600 16005KT P6SM SCT150=

USA.gov is the U.S. government's official web portal to all federal, state and local government web resources and services.